Flight Track Log - Related Links

Times and Time Zones

All times are in EDT time to prevent confusion due to time zone crossing. See the THY2113 flight status page for this flight to view local times or setup timezone preferences in your user account.

Time Position Orientation Groundspeed Altitude Reporting Facility
EDT Latitude Longitude Course Direction KTS MPH feet Rate Location/Type
Wed 12:59:32 AM 40.5718 30.9186 285° West  Level Estimated
Wed 01:00:32 AM 40.5915 30.8215 285° West  Level Estimated
Wed 01:01:32 AM 40.6111 30.7244 285° West  Level Estimated
Wed 01:02:32 AM 40.6307 30.6272 285° West  Level Estimated
Wed 01:03:32 AM 40.6501 30.5299 285° West  Level Estimated
Wed 01:04:32 AM 40.6695 30.4326 285° West  Level Estimated
Wed 01:05:32 AM 40.6888 30.3352 285° West  Level Estimated
Wed 01:06:32 AM 40.7080 30.2378 285° West  Level Estimated
Wed 01:07:32 AM 40.7271 30.1403 284° West  Level Estimated
Wed 01:08:32 AM 40.7462 30.0427 284° West  Level Estimated
Wed 01:09:32 AM 40.7651 29.9452 284° West  Level Estimated
Wed 01:10:32 AM 40.7840 29.8475 284° West  Level Estimated
Wed 01:11:32 AM 40.8028 29.7498 284° West  Level Estimated
Wed 01:12:32 AM 40.8215 29.6520 284° West  Level Estimated
Wed 01:13:32 AM 40.8402 29.5542 284° West  Level Estimated
Wed 01:14:32 AM 40.8587 29.4563 284° West  Level Estimated
Wed 01:15:32 AM 40.8772 29.3584 284° West  Level Estimated
Wed 01:16:32 AM 40.8956 29.2604 284° West  Level Estimated
Wed 01:17:32 AM 40.9139 29.1624 284° West  Level Estimated
Wed 01:18:32 AM 40.9321 29.0643 284° West  Level Estimated
Wed 01:19:32 AM 40.9503 28.9662 284° West  Level Estimated
Wed 01:20:32 AM 40.9683 28.8680 284° West  Level Estimated
Wed 01:21:32 AM 40.9863 28.7697 104° East  Level Estimated
Wed 01:22:32 AM 40.9683 28.8680 284° West  Level Estimated
Wed 01:23:32 AM 40.9863 28.7697 104° East  Level Estimated
Wed 01:24:32 AM 40.9683 28.8680 284° West  Level Estimated
Wed 01:25:32 AM 40.9863 28.7697 104° East  Level Estimated
Wed 01:26:32 AM 40.9683 28.8680 284° West  Level Estimated
Wed 01:27:32 AM 40.9863 28.7697 104° East  Level Estimated
Wed 01:28:32 AM 40.9683 28.8680 284° West  Level Estimated
Wed 01:29:32 AM 40.9863 28.7697 104° East  Level Estimated
Wed 01:30:32 AM 40.9683 28.8680 284° West  Level Estimated
Wed 01:31:32 AM 40.9863 28.7697 104° East  Level Estimated
Wed 01:32:32 AM 40.9683 28.8680 284° West  Level Estimated
Wed 01:33:32 AM 40.9863 28.7697 284° West  Level Estimated

Login

Don't have an account? Register now (free) for customized features, flight alerts, and more!